sensor_id;sensor_type;location;lat;lon;timestamp;P1;durP1;ratioP1;P2;durP2;ratioP2
50781;SDS011;36749;37.428;-121.972;2023-04-24T00:00:32;6.32;;;2.00;;
50781;SDS011;36749;37.428;-121.972;2023-04-24T00:02:58;9.05;;;2.28;;
50781;SDS011;36749;37.428;-121.972;2023-04-24T00:05:24;7.97;;;2.50;;
50781;SDS011;36749;37.428;-121.972;2023-04-24T00:07:51;9.48;;;2.20;;
50781;SDS011;36749;37.428;-121.972;2023-04-24T00:10:20;11.65;;;2.50;;
50781;SDS011;36749;37.428;-121.972;2023-04-24T00:12:47;10.43;;;2.35;;
50781;SDS011;36749;37.428;-121.972;2023-04-24T00:15:13;11.18;;;2.55;;
50781;SDS011;36749;37.428;-121.972;2023-04-24T00:17:39;6.18;;;1.70;;
50781;SDS011;36749;37.428;-121.972;2023-04-24T00:20:06;13.52;;;2.00;;
50781;SDS011;36749;37.428;-121.972;2023-04-24T00:22:33;9.68;;;2.05;;
50781;SDS011;36749;37.428;-121.972;2023-04-24T00:24:59;9.00;;;1.92;;
50781;SDS011;36749;37.428;-121.972;2023-04-24T00:27:25;12.43;;;2.53;;
50781;SDS011;36749;37.428;-121.972;2023-04-24T00:29:51;8.32;;;2.35;;
50781;SDS011;36749;37.428;-121.972;2023-04-24T00:32:18;15.77;;;2.60;;
50781;SDS011;36749;37.428;-121.972;2023-04-24T00:34:44;13.13;;;3.63;;
50781;SDS011;36749;37.428;-121.972;2023-04-24T00:37:11;9.73;;;2.20;;
50781;SDS011;36749;37.428;-121.972;2023-04-24T00:39:37;13.07;;;2.67;;
50781;SDS011;36749;37.428;-121.972;2023-04-24T00:42:03;11.40;;;2.28;;
50781;SDS011;36749;37.428;-121.972;2023-04-24T00:44:32;13.02;;;2.35;;
50781;SDS011;36749;37.428;-121.972;2023-04-24T00:47:00;26.77;;;4.00;;
50781;SDS011;36749;37.428;-121.972;2023-04-24T00:49:27;15.35;;;3.50;;
50781;SDS011;36749;37.428;-121.972;2023-04-24T00:51:53;10.65;;;2.72;;
50781;SDS011;36749;37.428;-121.972;2023-04-24T00:54:19;12.10;;;2.92;;
50781;SDS011;36749;37.428;-121.972;2023-04-24T00:56:46;10.95;;;2.72;;
50781;SDS011;36749;37.428;-121.972;2023-04-24T00:59:13;13.50;;;3.88;;
50781;SDS011;36749;37.428;-121.972;2023-04-24T01:01:39;15.32;;;3.63;;
50781;SDS011;36749;37.428;-121.972;2023-04-24T01:04:07;14.75;;;2.78;;
50781;SDS011;36749;37.428;-121.972;2023-04-24T01:06:35;10.88;;;2.60;;
50781;SDS011;36749;37.428;-121.972;2023-04-24T01:09:04;10.75;;;2.28;;
50781;SDS011;36749;37.428;-121.972;2023-04-24T01:11:31;11.95;;;2.92;;
50781;SDS011;36749;37.428;-121.972;2023-04-24T01:13:57;15.27;;;2.95;;
50781;SDS011;36749;37.428;-121.972;2023-04-24T01:16:24;11.05;;;2.65;;
50781;SDS011;36749;37.428;-121.972;2023-04-24T01:18:53;15.18;;;3.13;;
50781;SDS011;36749;37.428;-121.972;2023-04-24T01:21:19;17.63;;;4.65;;
50781;SDS011;36749;37.428;-121.972;2023-04-24T01:23:47;13.30;;;2.78;;
50781;SDS011;36749;37.428;-121.972;2023-04-24T01:26:16;10.57;;;3.05;;
50781;SDS011;36749;37.428;-121.972;2023-04-24T01:28:45;16.65;;;3.15;;
50781;SDS011;36749;37.428;-121.972;2023-04-24T01:31:12;13.05;;;2.63;;
50781;SDS011;36749;37.428;-121.972;2023-04-24T01:33:38;9.55;;;2.58;;
50781;SDS011;36749;37.428;-121.972;2023-04-24T01:36:06;11.68;;;2.97;;
50781;SDS011;36749;37.428;-121.972;2023-04-24T01:38:32;14.00;;;4.40;;
50781;SDS011;36749;37.428;-121.972;2023-04-24T01:40:59;16.38;;;3.72;;
50781;SDS011;36749;37.428;-121.972;2023-04-24T01:43:25;15.40;;;4.00;;
50781;SDS011;36749;37.428;-121.972;2023-04-24T01:45:52;11.20;;;2.65;;
50781;SDS011;36749;37.428;-121.972;2023-04-24T01:48:18;9.80;;;2.95;;
50781;SDS011;36749;37.428;-121.972;2023-04-24T01:50:45;10.63;;;2.60;;
50781;SDS011;36749;37.428;-121.972;2023-04-24T01:53:11;14.90;;;3.80;;
50781;SDS011;36749;37.428;-121.972;2023-04-24T01:55:37;21.52;;;4.00;;
50781;SDS011;36749;37.428;-121.972;2023-04-24T01:58:04;15.65;;;3.67;;
50781;SDS011;36749;37.428;-121.972;2023-04-24T02:00:30;20.13;;;3.88;;
50781;SDS011;36749;37.428;-121.972;2023-04-24T02:02:57;15.07;;;2.97;;
50781;SDS011;36749;37.428;-121.972;2023-04-24T02:05:24;12.93;;;3.13;;
50781;SDS011;36749;37.428;-121.972;2023-04-24T02:07:50;15.63;;;4.18;;
50781;SDS011;36749;37.428;-121.972;2023-04-24T02:10:16;19.13;;;3.80;;
50781;SDS011;36749;37.428;-121.972;2023-04-24T02:12:43;15.80;;;3.30;;
50781;SDS011;36749;37.428;-121.972;2023-04-24T02:15:09;13.00;;;3.45;;
50781;SDS011;36749;37.428;-121.972;2023-04-24T02:17:37;14.05;;;2.85;;
50781;SDS011;36749;37.428;-121.972;2023-04-24T02:20:04;14.13;;;3.42;;
50781;SDS011;36749;37.428;-121.972;2023-04-24T02:22:31;24.38;;;4.00;;
50781;SDS011;36749;37.428;-121.972;2023-04-24T02:24:57;20.23;;;4.50;;
50781;SDS011;36749;37.428;-121.972;2023-04-24T02:27:24;15.73;;;3.50;;
50781;SDS011;36749;37.428;-121.972;2023-04-24T02:29:50;16.83;;;4.00;;
50781;SDS011;36749;37.428;-121.972;2023-04-24T02:32:16;17.67;;;4.18;;
50781;SDS011;36749;37.428;-121.972;2023-04-24T02:34:42;11.30;;;3.28;;
50781;SDS011;36749;37.428;-121.972;2023-04-24T02:37:08;16.42;;;3.78;;
50781;SDS011;36749;37.428;-121.972;2023-04-24T02:39:35;16.98;;;4.43;;
50781;SDS011;36749;37.428;-121.972;2023-04-24T02:42:01;14.50;;;3.90;;
50781;SDS011;36749;37.428;-121.972;2023-04-24T02:44:28;16.55;;;5.25;;
50781;SDS011;36749;37.428;-121.972;2023-04-24T02:46:54;20.02;;;3.88;;
50781;SDS011;36749;37.428;-121.972;2023-04-24T02:49:20;9.70;;;3.53;;
50781;SDS011;36749;37.428;-121.972;2023-04-24T02:51:46;16.08;;;5.82;;
50781;SDS011;36749;37.428;-121.972;2023-04-24T02:54:12;16.90;;;6.90;;
50781;SDS011;36749;37.428;-121.972;2023-04-24T02:56:39;16.60;;;4.38;;
50781;SDS011;36749;37.428;-121.972;2023-04-24T02:59:05;12.80;;;2.50;;
50781;SDS011;36749;37.428;-121.972;2023-04-24T03:01:32;13.63;;;2.95;;
50781;SDS011;36749;37.428;-121.972;2023-04-24T03:03:58;12.88;;;2.85;;
50781;SDS011;36749;37.428;-121.972;2023-04-24T03:06:25;14.05;;;3.53;;
50781;SDS011;36749;37.428;-121.972;2023-04-24T03:08:52;12.45;;;3.00;;
50781;SDS011;36749;37.428;-121.972;2023-04-24T03:11:19;18.88;;;2.90;;
50781;SDS011;36749;37.428;-121.972;2023-04-24T03:13:45;7.50;;;2.75;;
50781;SDS011;36749;37.428;-121.972;2023-04-24T03:16:11;13.48;;;2.38;;
50781;SDS011;36749;37.428;-121.972;2023-04-24T03:18:37;12.13;;;3.45;;
50781;SDS011;36749;37.428;-121.972;2023-04-24T03:21:04;11.88;;;3.78;;
50781;SDS011;36749;37.428;-121.972;2023-04-24T03:23:30;18.48;;;4.25;;
50781;SDS011;36749;37.428;-121.972;2023-04-24T03:25:56;21.45;;;4.15;;
50781;SDS011;36749;37.428;-121.972;2023-04-24T03:28:23;18.95;;;4.10;;
50781;SDS011;36749;37.428;-121.972;2023-04-24T03:30:50;17.08;;;4.28;;
50781;SDS011;36749;37.428;-121.972;2023-04-24T03:33:17;14.07;;;3.63;;
50781;SDS011;36749;37.428;-121.972;2023-04-24T03:35:43;17.63;;;4.05;;
50781;SDS011;36749;37.428;-121.972;2023-04-24T03:38:10;16.50;;;3.90;;
50781;SDS011;36749;37.428;-121.972;2023-04-24T03:40:36;16.45;;;4.03;;
50781;SDS011;36749;37.428;-121.972;2023-04-24T03:43:02;17.02;;;3.45;;
50781;SDS011;36749;37.428;-121.972;2023-04-24T03:45:28;16.58;;;3.40;;
50781;SDS011;36749;37.428;-121.972;2023-04-24T03:47:55;21.45;;;4.35;;
50781;SDS011;36749;37.428;-121.972;2023-04-24T03:50:21;23.15;;;4.38;;
50781;SDS011;36749;37.428;-121.972;2023-04-24T03:52:47;12.15;;;3.67;;
50781;SDS011;36749;37.428;-121.972;2023-04-24T03:55:14;19.42;;;4.03;;
50781;SDS011;36749;37.428;-121.972;2023-04-24T03:57:40;16.83;;;3.50;;
50781;SDS011;36749;37.428;-121.972;2023-04-24T04:00:07;17.60;;;3.30;;
50781;SDS011;36749;37.428;-121.972;2023-04-24T04:02:34;18.90;;;4.00;;
50781;SDS011;36749;37.428;-121.972;2023-04-24T04:05:00;18.88;;;3.50;;
50781;SDS011;36749;37.428;-121.972;2023-04-24T04:07:27;18.88;;;4.00;;
50781;SDS011;36749;37.428;-121.972;2023-04-24T04:09:55;18.40;;;3.50;;
50781;SDS011;36749;37.428;-121.972;2023-04-24T04:12:21;17.13;;;3.80;;
50781;SDS011;36749;37.428;-121.972;2023-04-24T04:14:47;17.20;;;4.05;;
50781;SDS011;36749;37.428;-121.972;2023-04-24T04:17:13;16.77;;;3.60;;
50781;SDS011;36749;37.428;-121.972;2023-04-24T04:19:40;17.70;;;3.63;;
50781;SDS011;36749;37.428;-121.972;2023-04-24T04:22:06;21.40;;;4.00;;
50781;SDS011;36749;37.428;-121.972;2023-04-24T04:24:33;21.50;;;4.43;;
50781;SDS011;36749;37.428;-121.972;2023-04-24T04:27:03;16.08;;;4.43;;
50781;SDS011;36749;37.428;-121.972;2023-04-24T04:29:30;20.13;;;4.65;;
50781;SDS011;36749;37.428;-121.972;2023-04-24T04:31:57;21.00;;;4.60;;
50781;SDS011;36749;37.428;-121.972;2023-04-24T04:34:23;19.27;;;3.78;;
50781;SDS011;36749;37.428;-121.972;2023-04-24T04:36:49;24.08;;;4.43;;
50781;SDS011;36749;37.428;-121.972;2023-04-24T04:39:16;22.17;;;5.22;;
50781;SDS011;36749;37.428;-121.972;2023-04-24T04:41:43;24.42;;;4.57;;
50781;SDS011;36749;37.428;-121.972;2023-04-24T04:44:14;19.95;;;4.63;;
50781;SDS011;36749;37.428;-121.972;2023-04-24T04:46:40;23.77;;;4.57;;
50781;SDS011;36749;37.428;-121.972;2023-04-24T04:49:07;21.58;;;4.82;;
50781;SDS011;36749;37.428;-121.972;2023-04-24T04:51:34;17.50;;;4.32;;
50781;SDS011;36749;37.428;-121.972;2023-04-24T04:54:00;21.92;;;4.32;;
50781;SDS011;36749;37.428;-121.972;2023-04-24T04:56:27;19.63;;;4.95;;
50781;SDS011;36749;37.428;-121.972;2023-04-24T04:58:53;27.02;;;5.32;;
50781;SDS011;36749;37.428;-121.972;2023-04-24T05:01:19;26.95;;;4.90;;
50781;SDS011;36749;37.428;-121.972;2023-04-24T05:03:46;23.75;;;5.65;;
50781;SDS011;36749;37.428;-121.972;2023-04-24T05:06:12;17.52;;;4.10;;
50781;SDS011;36749;37.428;-121.972;2023-04-24T05:08:38;21.20;;;5.32;;
50781;SDS011;36749;37.428;-121.972;2023-04-24T05:11:05;19.95;;;4.55;;
50781;SDS011;36749;37.428;-121.972;2023-04-24T05:13:31;26.58;;;4.93;;
50781;SDS011;36749;37.428;-121.972;2023-04-24T05:15:57;24.60;;;5.07;;
50781;SDS011;36749;37.428;-121.972;2023-04-24T05:18:24;27.92;;;6.10;;
50781;SDS011;36749;37.428;-121.972;2023-04-24T05:20:50;30.38;;;5.95;;
50781;SDS011;36749;37.428;-121.972;2023-04-24T05:23:17;26.33;;;6.45;;
50781;SDS011;36749;37.428;-121.972;2023-04-24T05:25:43;20.27;;;5.88;;
50781;SDS011;36749;37.428;-121.972;2023-04-24T05:28:09;26.30;;;5.30;;
50781;SDS011;36749;37.428;-121.972;2023-04-24T05:30:35;31.38;;;5.93;;
50781;SDS011;36749;37.428;-121.972;2023-04-24T05:33:02;25.55;;;5.80;;
50781;SDS011;36749;37.428;-121.972;2023-04-24T05:35:28;26.13;;;5.45;;
50781;SDS011;36749;37.428;-121.972;2023-04-24T05:37:54;27.65;;;5.85;;
50781;SDS011;36749;37.428;-121.972;2023-04-24T05:40:20;32.72;;;6.18;;
50781;SDS011;36749;37.428;-121.972;2023-04-24T05:42:46;28.10;;;7.35;;
50781;SDS011;36749;37.428;-121.972;2023-04-24T05:45:13;24.98;;;6.35;;
50781;SDS011;36749;37.428;-121.972;2023-04-24T05:47:44;29.10;;;4.75;;
50781;SDS011;36749;37.428;-121.972;2023-04-24T05:50:11;31.23;;;6.43;;
50781;SDS011;36749;37.428;-121.972;2023-04-24T05:52:37;30.80;;;6.78;;
50781;SDS011;36749;37.428;-121.972;2023-04-24T05:55:03;27.33;;;5.60;;
50781;SDS011;36749;37.428;-121.972;2023-04-24T05:57:30;29.23;;;6.00;;
50781;SDS011;36749;37.428;-121.972;2023-04-24T05:59:57;25.73;;;5.75;;
50781;SDS011;36749;37.428;-121.972;2023-04-24T06:02:23;27.27;;;7.53;;
50781;SDS011;36749;37.428;-121.972;2023-04-24T06:05:09;28.30;;;5.60;;
50781;SDS011;36749;37.428;-121.972;2023-04-24T06:07:36;33.70;;;7.20;;
50781;SDS011;36749;37.428;-121.972;2023-04-24T06:10:02;32.22;;;6.55;;
50781;SDS011;36749;37.428;-121.972;2023-04-24T06:12:28;30.42;;;5.95;;
50781;SDS011;36749;37.428;-121.972;2023-04-24T06:14:55;30.27;;;6.60;;
50781;SDS011;36749;37.428;-121.972;2023-04-24T06:17:21;23.02;;;5.57;;
50781;SDS011;36749;37.428;-121.972;2023-04-24T06:19:48;39.03;;;7.78;;
50781;SDS011;36749;37.428;-121.972;2023-04-24T06:22:14;27.85;;;6.28;;
50781;SDS011;36749;37.428;-121.972;2023-04-24T06:24:41;26.45;;;6.00;;
50781;SDS011;36749;37.428;-121.972;2023-04-24T06:27:07;30.55;;;7.22;;
50781;SDS011;36749;37.428;-121.972;2023-04-24T06:29:33;23.77;;;5.68;;
50781;SDS011;36749;37.428;-121.972;2023-04-24T06:32:00;29.92;;;6.65;;
50781;SDS011;36749;37.428;-121.972;2023-04-24T06:34:26;30.75;;;5.93;;
50781;SDS011;36749;37.428;-121.972;2023-04-24T06:36:52;32.35;;;7.20;;
50781;SDS011;36749;37.428;-121.972;2023-04-24T06:39:20;31.48;;;6.28;;
50781;SDS011;36749;37.428;-121.972;2023-04-24T06:41:46;27.67;;;6.05;;
50781;SDS011;36749;37.428;-121.972;2023-04-24T06:44:12;26.40;;;6.63;;
50781;SDS011;36749;37.428;-121.972;2023-04-24T06:46:40;30.83;;;6.45;;
50781;SDS011;36749;37.428;-121.972;2023-04-24T06:49:06;26.77;;;6.43;;
50781;SDS011;36749;37.428;-121.972;2023-04-24T06:51:33;30.45;;;6.15;;
50781;SDS011;36749;37.428;-121.972;2023-04-24T06:53:59;32.45;;;6.35;;
50781;SDS011;36749;37.428;-121.972;2023-04-24T06:56:25;26.42;;;6.97;;
50781;SDS011;36749;37.428;-121.972;2023-04-24T06:58:54;29.45;;;7.18;;
50781;SDS011;36749;37.428;-121.972;2023-04-24T07:01:20;34.20;;;7.25;;
50781;SDS011;36749;37.428;-121.972;2023-04-24T07:03:47;29.05;;;6.10;;
50781;SDS011;36749;37.428;-121.972;2023-04-24T07:06:13;34.65;;;6.60;;
50781;SDS011;36749;37.428;-121.972;2023-04-24T07:08:41;31.45;;;6.65;;
50781;SDS011;36749;37.428;-121.972;2023-04-24T07:11:07;27.52;;;6.25;;
50781;SDS011;36749;37.428;-121.972;2023-04-24T07:13:34;25.17;;;6.35;;
50781;SDS011;36749;37.428;-121.972;2023-04-24T07:16:00;30.02;;;6.38;;
50781;SDS011;36749;37.428;-121.972;2023-04-24T07:18:27;31.50;;;8.05;;
50781;SDS011;36749;37.428;-121.972;2023-04-24T07:20:53;30.80;;;6.22;;
50781;SDS011;36749;37.428;-121.972;2023-04-24T07:23:19;30.73;;;6.78;;
50781;SDS011;36749;37.428;-121.972;2023-04-24T07:25:46;32.53;;;7.05;;
50781;SDS011;36749;37.428;-121.972;2023-04-24T07:28:12;32.17;;;7.35;;
50781;SDS011;36749;37.428;-121.972;2023-04-24T07:30:38;27.98;;;6.38;;
50781;SDS011;36749;37.428;-121.972;2023-04-24T07:33:05;24.05;;;5.43;;
50781;SDS011;36749;37.428;-121.972;2023-04-24T07:35:33;25.40;;;6.75;;
50781;SDS011;36749;37.428;-121.972;2023-04-24T07:38:00;27.00;;;6.05;;
50781;SDS011;36749;37.428;-121.972;2023-04-24T07:40:27;24.63;;;5.82;;
50781;SDS011;36749;37.428;-121.972;2023-04-24T07:42:53;32.45;;;6.35;;
50781;SDS011;36749;37.428;-121.972;2023-04-24T07:45:19;24.90;;;5.97;;
50781;SDS011;36749;37.428;-121.972;2023-04-24T07:47:45;28.88;;;7.53;;
50781;SDS011;36749;37.428;-121.972;2023-04-24T07:50:12;29.48;;;6.65;;
50781;SDS011;36749;37.428;-121.972;2023-04-24T07:52:38;26.75;;;5.60;;
50781;SDS011;36749;37.428;-121.972;2023-04-24T07:55:05;30.23;;;7.50;;
50781;SDS011;36749;37.428;-121.972;2023-04-24T07:57:32;25.17;;;5.70;;
50781;SDS011;36749;37.428;-121.972;2023-04-24T08:06:42;32.70;;;7.03;;
50781;SDS011;36749;37.428;-121.972;2023-04-24T08:09:08;28.83;;;7.88;;
50781;SDS011;36749;37.428;-121.972;2023-04-24T08:11:35;32.53;;;7.28;;
50781;SDS011;36749;37.428;-121.972;2023-04-24T08:14:01;30.05;;;6.78;;
50781;SDS011;36749;37.428;-121.972;2023-04-24T08:16:27;34.45;;;8.45;;
50781;SDS011;36749;37.428;-121.972;2023-04-24T08:18:53;32.47;;;6.53;;
50781;SDS011;36749;37.428;-121.972;2023-04-24T08:21:20;38.38;;;8.50;;
50781;SDS011;36749;37.428;-121.972;2023-04-24T08:23:46;34.15;;;7.53;;
50781;SDS011;36749;37.428;-121.972;2023-04-24T08:26:13;31.63;;;6.90;;
50781;SDS011;36749;37.428;-121.972;2023-04-24T08:28:39;29.20;;;6.72;;
50781;SDS011;36749;37.428;-121.972;2023-04-24T08:31:05;36.63;;;8.18;;
50781;SDS011;36749;37.428;-121.972;2023-04-24T08:33:32;35.58;;;7.22;;
50781;SDS011;36749;37.428;-121.972;2023-04-24T08:36:04;32.13;;;6.15;;
50781;SDS011;36749;37.428;-121.972;2023-04-24T08:38:31;34.88;;;7.10;;
50781;SDS011;36749;37.428;-121.972;2023-04-24T08:40:58;33.60;;;6.80;;
50781;SDS011;36749;37.428;-121.972;2023-04-24T08:43:25;26.15;;;5.82;;
50781;SDS011;36749;37.428;-121.972;2023-04-24T08:45:52;32.30;;;7.50;;
50781;SDS011;36749;37.428;-121.972;2023-04-24T08:48:21;30.83;;;6.88;;
50781;SDS011;36749;37.428;-121.972;2023-04-24T08:50:50;29.15;;;7.07;;
50781;SDS011;36749;37.428;-121.972;2023-04-24T08:53:17;32.28;;;7.15;;
50781;SDS011;36749;37.428;-121.972;2023-04-24T08:55:46;28.40;;;6.55;;
50781;SDS011;36749;37.428;-121.972;2023-04-24T08:58:14;30.17;;;5.75;;
50781;SDS011;36749;37.428;-121.972;2023-04-24T09:00:43;31.85;;;6.47;;
50781;SDS011;36749;37.428;-121.972;2023-04-24T09:03:15;28.65;;;7.00;;
50781;SDS011;36749;37.428;-121.972;2023-04-24T09:05:45;32.28;;;8.25;;
50781;SDS011;36749;37.428;-121.972;2023-04-24T09:08:13;29.65;;;7.25;;
50781;SDS011;36749;37.428;-121.972;2023-04-24T09:10:40;37.67;;;7.90;;
50781;SDS011;36749;37.428;-121.972;2023-04-24T09:13:07;30.15;;;6.57;;
50781;SDS011;36749;37.428;-121.972;2023-04-24T09:15:36;31.33;;;8.43;;
50781;SDS011;36749;37.428;-121.972;2023-04-24T09:18:04;30.48;;;7.63;;
50781;SDS011;36749;37.428;-121.972;2023-04-24T09:20:30;30.40;;;5.95;;
50781;SDS011;36749;37.428;-121.972;2023-04-24T09:22:57;36.70;;;7.93;;
50781;SDS011;36749;37.428;-121.972;2023-04-24T09:25:33;26.48;;;6.78;;
50781;SDS011;36749;37.428;-121.972;2023-04-24T09:28:02;27.48;;;5.80;;
50781;SDS011;36749;37.428;-121.972;2023-04-24T09:30:29;31.42;;;6.85;;
50781;SDS011;36749;37.428;-121.972;2023-04-24T09:33:14;31.10;;;6.55;;
50781;SDS011;36749;37.428;-121.972;2023-04-24T09:35:41;30.65;;;6.88;;
50781;SDS011;36749;37.428;-121.972;2023-04-24T09:38:08;24.88;;;5.90;;
50781;SDS011;36749;37.428;-121.972;2023-04-24T09:40:36;35.13;;;6.88;;
50781;SDS011;36749;37.428;-121.972;2023-04-24T09:43:02;24.40;;;6.40;;
50781;SDS011;36749;37.428;-121.972;2023-04-24T09:45:31;30.55;;;6.65;;
50781;SDS011;36749;37.428;-121.972;2023-04-24T09:48:01;35.42;;;8.32;;
50781;SDS011;36749;37.428;-121.972;2023-04-24T09:50:29;27.17;;;6.28;;
50781;SDS011;36749;37.428;-121.972;2023-04-24T09:53:03;25.63;;;7.55;;
50781;SDS011;36749;37.428;-121.972;2023-04-24T09:55:31;33.28;;;7.05;;
50781;SDS011;36749;37.428;-121.972;2023-04-24T09:58:00;34.08;;;7.93;;
50781;SDS011;36749;37.428;-121.972;2023-04-24T10:00:31;33.90;;;7.07;;
50781;SDS011;36749;37.428;-121.972;2023-04-24T10:02:58;26.88;;;6.35;;
50781;SDS011;36749;37.428;-121.972;2023-04-24T10:05:32;28.50;;;6.45;;
50781;SDS011;36749;37.428;-121.972;2023-04-24T10:10:33;33.85;;;7.43;;
50781;SDS011;36749;37.428;-121.972;2023-04-24T10:13:04;27.50;;;6.72;;
50781;SDS011;36749;37.428;-121.972;2023-04-24T10:15:31;32.05;;;6.70;;
50781;SDS011;36749;37.428;-121.972;2023-04-24T10:17:58;23.90;;;6.30;;
50781;SDS011;36749;37.428;-121.972;2023-04-24T10:20:26;34.17;;;8.18;;
50781;SDS011;36749;37.428;-121.972;2023-04-24T10:22:57;25.42;;;6.38;;
50781;SDS011;36749;37.428;-121.972;2023-04-24T10:25:25;27.23;;;7.55;;
50781;SDS011;36749;37.428;-121.972;2023-04-24T10:27:56;24.33;;;6.88;;
50781;SDS011;36749;37.428;-121.972;2023-04-24T10:30:25;30.27;;;5.90;;
50781;SDS011;36749;37.428;-121.972;2023-04-24T10:32:53;26.02;;;6.25;;
50781;SDS011;36749;37.428;-121.972;2023-04-24T10:35:19;26.88;;;7.32;;
50781;SDS011;36749;37.428;-121.972;2023-04-24T10:37:51;24.67;;;6.85;;
50781;SDS011;36749;37.428;-121.972;2023-04-24T10:40:32;23.67;;;7.22;;
50781;SDS011;36749;37.428;-121.972;2023-04-24T10:42:59;32.97;;;7.55;;
50781;SDS011;36749;37.428;-121.972;2023-04-24T10:45:33;23.77;;;6.30;;
50781;SDS011;36749;37.428;-121.972;2023-04-24T10:48:03;33.13;;;7.88;;
50781;SDS011;36749;37.428;-121.972;2023-04-24T10:53:14;27.95;;;6.55;;
50781;SDS011;36749;37.428;-121.972;2023-04-24T10:55:56;29.13;;;6.20;;
50781;SDS011;36749;37.428;-121.972;2023-04-24T10:58:24;21.13;;;6.00;;
50781;SDS011;36749;37.428;-121.972;2023-04-24T11:01:01;23.67;;;5.55;;
50781;SDS011;36749;37.428;-121.972;2023-04-24T11:03:28;24.55;;;7.25;;
50781;SDS011;36749;37.428;-121.972;2023-04-24T11:06:00;22.92;;;5.47;;
50781;SDS011;36749;37.428;-121.972;2023-04-24T11:08:40;31.80;;;8.18;;
50781;SDS011;36749;37.428;-121.972;2023-04-24T11:11:10;28.77;;;6.63;;
50781;SDS011;36749;37.428;-121.972;2023-04-24T11:16:20;28.27;;;7.07;;
50781;SDS011;36749;37.428;-121.972;2023-04-24T11:19:09;29.45;;;6.50;;
50781;SDS011;36749;37.428;-121.972;2023-04-24T11:21:55;30.52;;;6.30;;
50781;SDS011;36749;37.428;-121.972;2023-04-24T11:25:11;33.22;;;6.97;;
50781;SDS011;36749;37.428;-121.972;2023-04-24T11:27:13;35.20;;;7.18;;
50781;SDS011;36749;37.428;-121.972;2023-04-24T11:29:42;23.83;;;5.70;;
50781;SDS011;36749;37.428;-121.972;2023-04-24T11:32:34;32.50;;;7.38;;
50781;SDS011;36749;37.428;-121.972;2023-04-24T11:37:42;26.55;;;7.55;;
50781;SDS011;36749;37.428;-121.972;2023-04-24T11:40:14;22.60;;;6.40;;
50781;SDS011;36749;37.428;-121.972;2023-04-24T11:42:45;29.52;;;6.03;;
50781;SDS011;36749;37.428;-121.972;2023-04-24T11:45:16;32.25;;;6.32;;
50781;SDS011;36749;37.428;-121.972;2023-04-24T11:47:53;31.25;;;7.75;;
50781;SDS011;36749;37.428;-121.972;2023-04-24T11:50:21;34.78;;;5.95;;
50781;SDS011;36749;37.428;-121.972;2023-04-24T11:52:50;35.13;;;6.47;;
50781;SDS011;36749;37.428;-121.972;2023-04-24T11:57:48;26.33;;;5.78;;
50781;SDS011;36749;37.428;-121.972;2023-04-24T12:00:19;26.02;;;6.60;;
50781;SDS011;36749;37.428;-121.972;2023-04-24T12:02:46;20.02;;;5.07;;
50781;SDS011;36749;37.428;-121.972;2023-04-24T12:05:25;22.90;;;5.60;;
50781;SDS011;36749;37.428;-121.972;2023-04-24T12:07:52;20.25;;;5.30;;
50781;SDS011;36749;37.428;-121.972;2023-04-24T12:10:22;21.70;;;6.60;;
50781;SDS011;36749;37.428;-121.972;2023-04-24T12:12:50;23.80;;;6.70;;
50781;SDS011;36749;37.428;-121.972;2023-04-24T12:15:17;27.33;;;6.10;;
50781;SDS011;36749;37.428;-121.972;2023-04-24T12:17:45;28.77;;;6.47;;
50781;SDS011;36749;37.428;-121.972;2023-04-24T12:20:12;27.95;;;6.18;;
50781;SDS011;36749;37.428;-121.972;2023-04-24T12:22:52;24.45;;;5.72;;
50781;SDS011;36749;37.428;-121.972;2023-04-24T12:25:20;30.30;;;7.43;;
50781;SDS011;36749;37.428;-121.972;2023-04-24T12:28:09;23.73;;;5.32;;
50781;SDS011;36749;37.428;-121.972;2023-04-24T12:30:39;25.58;;;5.53;;
50781;SDS011;36749;37.428;-121.972;2023-04-24T12:33:10;23.63;;;6.13;;
50781;SDS011;36749;37.428;-121.972;2023-04-24T12:35:36;26.58;;;5.90;;
50781;SDS011;36749;37.428;-121.972;2023-04-24T12:38:09;27.45;;;7.00;;
50781;SDS011;36749;37.428;-121.972;2023-04-24T12:40:40;32.20;;;7.20;;
50781;SDS011;36749;37.428;-121.972;2023-04-24T12:43:17;27.02;;;6.28;;
50781;SDS011;36749;37.428;-121.972;2023-04-24T12:45:44;33.33;;;6.95;;
50781;SDS011;36749;37.428;-121.972;2023-04-24T12:48:10;24.38;;;6.40;;
50781;SDS011;36749;37.428;-121.972;2023-04-24T12:50:39;35.03;;;7.28;;
50781;SDS011;36749;37.428;-121.972;2023-04-24T12:53:06;30.85;;;6.82;;
50781;SDS011;36749;37.428;-121.972;2023-04-24T12:55:34;24.70;;;6.47;;
50781;SDS011;36749;37.428;-121.972;2023-04-24T12:58:00;28.85;;;6.97;;
50781;SDS011;36749;37.428;-121.972;2023-04-24T13:00:28;27.20;;;6.13;;
50781;SDS011;36749;37.428;-121.972;2023-04-24T13:02:54;23.02;;;5.63;;
50781;SDS011;36749;37.428;-121.972;2023-04-24T13:05:21;25.60;;;7.57;;
50781;SDS011;36749;37.428;-121.972;2023-04-24T13:07:47;24.20;;;7.07;;
50781;SDS011;36749;37.428;-121.972;2023-04-24T13:10:13;25.10;;;7.13;;
50781;SDS011;36749;37.428;-121.972;2023-04-24T13:12:40;28.05;;;6.47;;
50781;SDS011;36749;37.428;-121.972;2023-04-24T13:15:06;25.58;;;7.40;;
50781;SDS011;36749;37.428;-121.972;2023-04-24T13:17:36;34.20;;;8.27;;
50781;SDS011;36749;37.428;-121.972;2023-04-24T13:20:02;24.23;;;7.53;;
50781;SDS011;36749;37.428;-121.972;2023-04-24T13:22:29;27.38;;;7.70;;
50781;SDS011;36749;37.428;-121.972;2023-04-24T13:24:55;30.05;;;7.22;;
50781;SDS011;36749;37.428;-121.972;2023-04-24T13:27:22;35.58;;;9.07;;
50781;SDS011;36749;37.428;-121.972;2023-04-24T13:29:48;28.40;;;7.20;;
50781;SDS011;36749;37.428;-121.972;2023-04-24T13:32:15;25.33;;;7.38;;
50781;SDS011;36749;37.428;-121.972;2023-04-24T13:34:41;33.15;;;7.50;;
50781;SDS011;36749;37.428;-121.972;2023-04-24T13:37:07;21.00;;;6.35;;
50781;SDS011;36749;37.428;-121.972;2023-04-24T13:39:33;26.25;;;7.55;;
50781;SDS011;36749;37.428;-121.972;2023-04-24T13:42:00;34.75;;;8.00;;
50781;SDS011;36749;37.428;-121.972;2023-04-24T13:44:26;34.13;;;8.30;;
50781;SDS011;36749;37.428;-121.972;2023-04-24T13:46:54;31.70;;;8.35;;
50781;SDS011;36749;37.428;-121.972;2023-04-24T13:49:22;33.45;;;7.90;;
50781;SDS011;36749;37.428;-121.972;2023-04-24T13:51:50;35.50;;;7.18;;
50781;SDS011;36749;37.428;-121.972;2023-04-24T13:54:17;26.55;;;6.72;;
50781;SDS011;36749;37.428;-121.972;2023-04-24T13:56:43;30.33;;;6.53;;
50781;SDS011;36749;37.428;-121.972;2023-04-24T13:59:11;25.23;;;7.20;;
50781;SDS011;36749;37.428;-121.972;2023-04-24T14:01:38;26.48;;;6.43;;
50781;SDS011;36749;37.428;-121.972;2023-04-24T14:04:04;24.38;;;5.88;;
50781;SDS011;36749;37.428;-121.972;2023-04-24T14:06:31;27.95;;;6.15;;
50781;SDS011;36749;37.428;-121.972;2023-04-24T14:08:57;28.95;;;6.82;;
50781;SDS011;36749;37.428;-121.972;2023-04-24T14:11:23;26.30;;;5.50;;
50781;SDS011;36749;37.428;-121.972;2023-04-24T14:13:50;29.23;;;7.45;;
50781;SDS011;36749;37.428;-121.972;2023-04-24T14:16:16;19.77;;;5.70;;
50781;SDS011;36749;37.428;-121.972;2023-04-24T14:18:43;21.65;;;5.72;;